sensor_id;sensor_type;location;lat;lon;timestamp;pressure;altitude;pressure_sealevel;temperature;humidity
44131;BME280;29792;48.726;9.248;2023-03-15T00:01:17;96459.09;;;2.06;100.00
44131;BME280;29792;48.726;9.248;2023-03-15T00:03:43;96467.41;;;2.08;100.00
44131;BME280;29792;48.726;9.248;2023-03-15T00:06:09;96465.78;;;2.07;100.00
44131;BME280;29792;48.726;9.248;2023-03-15T00:08:34;96481.47;;;2.12;100.00
44131;BME280;29792;48.726;9.248;2023-03-15T00:11:00;96479.69;;;2.14;100.00
44131;BME280;29792;48.726;9.248;2023-03-15T00:13:25;96479.53;;;2.17;100.00
44131;BME280;29792;48.726;9.248;2023-03-15T00:15:52;96488.63;;;2.20;100.00
44131;BME280;29792;48.726;9.248;2023-03-15T00:18:20;96497.75;;;2.22;100.00
44131;BME280;29792;48.726;9.248;2023-03-15T00:20:45;96506.31;;;2.20;100.00
44131;BME280;29792;48.726;9.248;2023-03-15T00:23:11;96509.84;;;2.17;100.00
44131;BME280;29792;48.726;9.248;2023-03-15T00:25:37;96516.34;;;2.21;100.00
44131;BME280;29792;48.726;9.248;2023-03-15T00:28:02;96521.38;;;2.21;100.00
44131;BME280;29792;48.726;9.248;2023-03-15T00:30:28;96526.38;;;2.23;100.00
44131;BME280;29792;48.726;9.248;2023-03-15T00:32:53;96529.03;;;2.20;100.00
44131;BME280;29792;48.726;9.248;2023-03-15T00:35:19;96523.03;;;2.22;100.00
44131;BME280;29792;48.726;9.248;2023-03-15T00:37:45;96538.09;;;2.24;100.00
44131;BME280;29792;48.726;9.248;2023-03-15T00:40:11;96541.25;;;2.27;100.00
44131;BME280;29792;48.726;9.248;2023-03-15T00:42:37;96542.00;;;2.29;100.00
44131;BME280;29792;48.726;9.248;2023-03-15T00:45:03;96547.78;;;2.32;100.00
44131;BME280;29792;48.726;9.248;2023-03-15T00:47:28;96548.84;;;2.27;100.00
44131;BME280;29792;48.726;9.248;2023-03-15T00:49:53;96551.56;;;2.24;100.00
44131;BME280;29792;48.726;9.248;2023-03-15T00:52:18;96558.25;;;2.25;100.00
44131;BME280;29792;48.726;9.248;2023-03-15T00:54:50;96561.81;;;2.21;100.00
44131;BME280;29792;48.726;9.248;2023-03-15T00:57:16;96557.66;;;2.20;100.00
44131;BME280;29792;48.726;9.248;2023-03-15T00:59:41;96554.97;;;2.23;100.00
44131;BME280;29792;48.726;9.248;2023-03-15T01:02:09;96577.72;;;2.23;100.00
44131;BME280;29792;48.726;9.248;2023-03-15T01:04:34;96582.75;;;2.23;100.00
44131;BME280;29792;48.726;9.248;2023-03-15T01:06:59;96585.13;;;2.26;100.00
44131;BME280;29792;48.726;9.248;2023-03-15T01:09:25;96595.25;;;2.26;100.00
44131;BME280;29792;48.726;9.248;2023-03-15T01:11:50;96591.91;;;2.26;100.00
44131;BME280;29792;48.726;9.248;2023-03-15T01:14:16;96587.56;;;2.28;100.00
44131;BME280;29792;48.726;9.248;2023-03-15T01:16:43;96585.78;;;2.30;100.00
44131;BME280;29792;48.726;9.248;2023-03-15T01:19:08;96599.38;;;2.27;100.00
44131;BME280;29792;48.726;9.248;2023-03-15T01:21:33;96592.94;;;2.22;100.00
44131;BME280;29792;48.726;9.248;2023-03-15T01:23:58;96593.03;;;2.20;100.00
44131;BME280;29792;48.726;9.248;2023-03-15T01:26:24;96596.78;;;2.13;100.00
44131;BME280;29792;48.726;9.248;2023-03-15T01:28:49;96599.31;;;2.13;100.00
44131;BME280;29792;48.726;9.248;2023-03-15T01:31:17;96601.91;;;2.12;100.00
44131;BME280;29792;48.726;9.248;2023-03-15T01:33:43;96608.25;;;2.03;100.00
44131;BME280;29792;48.726;9.248;2023-03-15T01:36:10;96606.88;;;1.98;100.00
44131;BME280;29792;48.726;9.248;2023-03-15T01:38:35;96608.75;;;1.94;100.00
44131;BME280;29792;48.726;9.248;2023-03-15T01:41:00;96614.09;;;1.88;100.00
44131;BME280;29792;48.726;9.248;2023-03-15T01:43:27;96621.13;;;1.83;100.00
44131;BME280;29792;48.726;9.248;2023-03-15T01:48:37;96624.50;;;1.66;100.00
44131;BME280;29792;48.726;9.248;2023-03-15T01:51:12;96633.22;;;1.61;100.00
44131;BME280;29792;48.726;9.248;2023-03-15T01:53:41;96630.84;;;1.58;100.00
44131;BME280;29792;48.726;9.248;2023-03-15T01:56:08;96632.03;;;1.50;100.00
44131;BME280;29792;48.726;9.248;2023-03-15T01:58:34;96638.94;;;1.47;100.00
44131;BME280;29792;48.726;9.248;2023-03-15T02:01:01;96634.38;;;1.38;100.00
44131;BME280;29792;48.726;9.248;2023-03-15T02:03:34;96641.50;;;1.30;100.00
44131;BME280;29792;48.726;9.248;2023-03-15T02:06:04;96644.25;;;1.25;100.00
44131;BME280;29792;48.726;9.248;2023-03-15T02:08:34;96646.13;;;1.22;100.00
44131;BME280;29792;48.726;9.248;2023-03-15T02:11:03;96652.25;;;1.16;100.00
44131;BME280;29792;48.726;9.248;2023-03-15T02:13:29;96658.34;;;1.12;100.00
44131;BME280;29792;48.726;9.248;2023-03-15T02:15:55;96662.72;;;1.08;100.00
44131;BME280;29792;48.726;9.248;2023-03-15T02:18:20;96663.53;;;1.09;100.00
44131;BME280;29792;48.726;9.248;2023-03-15T02:20:52;96662.66;;;1.10;100.00
44131;BME280;29792;48.726;9.248;2023-03-15T02:23:21;96665.22;;;1.08;100.00
44131;BME280;29792;48.726;9.248;2023-03-15T02:28:36;96667.09;;;1.05;100.00
44131;BME280;29792;48.726;9.248;2023-03-15T02:31:02;96667.16;;;1.03;100.00
44131;BME280;29792;48.726;9.248;2023-03-15T02:33:33;96672.34;;;1.00;100.00
44131;BME280;29792;48.726;9.248;2023-03-15T02:36:14;96670.72;;;0.99;100.00
44131;BME280;29792;48.726;9.248;2023-03-15T02:38:41;96678.34;;;0.98;100.00
44131;BME280;29792;48.726;9.248;2023-03-15T02:41:06;96686.88;;;0.95;100.00
44131;BME280;29792;48.726;9.248;2023-03-15T02:43:32;96692.88;;;0.93;100.00
44131;BME280;29792;48.726;9.248;2023-03-15T02:45:58;96697.09;;;0.92;100.00
44131;BME280;29792;48.726;9.248;2023-03-15T02:48:24;96704.00;;;0.89;100.00
44131;BME280;29792;48.726;9.248;2023-03-15T02:50:49;96700.69;;;0.88;100.00
44131;BME280;29792;48.726;9.248;2023-03-15T02:53:15;96704.91;;;0.88;100.00
44131;BME280;29792;48.726;9.248;2023-03-15T02:55:40;96703.09;;;0.90;100.00
44131;BME280;29792;48.726;9.248;2023-03-15T02:58:05;96720.69;;;0.91;100.00
44131;BME280;29792;48.726;9.248;2023-03-15T03:00:30;96724.09;;;0.90;100.00
44131;BME280;29792;48.726;9.248;2023-03-15T03:02:56;96726.59;;;0.90;100.00
44131;BME280;29792;48.726;9.248;2023-03-15T03:05:22;96731.75;;;0.89;100.00
44131;BME280;29792;48.726;9.248;2023-03-15T03:07:47;96733.50;;;0.87;100.00
44131;BME280;29792;48.726;9.248;2023-03-15T03:10:16;96739.44;;;0.86;100.00
44131;BME280;29792;48.726;9.248;2023-03-15T03:12:42;96740.44;;;0.82;100.00
44131;BME280;29792;48.726;9.248;2023-03-15T03:15:07;96741.38;;;0.81;100.00
44131;BME280;29792;48.726;9.248;2023-03-15T03:17:33;96750.63;;;0.80;100.00
44131;BME280;29792;48.726;9.248;2023-03-15T03:20:03;96749.00;;;0.79;100.00
44131;BME280;29792;48.726;9.248;2023-03-15T03:22:29;96758.38;;;0.75;100.00
44131;BME280;29792;48.726;9.248;2023-03-15T03:24:54;96760.09;;;0.75;100.00
44131;BME280;29792;48.726;9.248;2023-03-15T03:27:19;96769.44;;;0.73;100.00
44131;BME280;29792;48.726;9.248;2023-03-15T03:29:45;96767.88;;;0.70;100.00
44131;BME280;29792;48.726;9.248;2023-03-15T03:32:10;96766.28;;;0.68;100.00
44131;BME280;29792;48.726;9.248;2023-03-15T03:34:36;96775.56;;;0.67;100.00
44131;BME280;29792;48.726;9.248;2023-03-15T03:37:02;96777.41;;;0.64;100.00
44131;BME280;29792;48.726;9.248;2023-03-15T03:39:27;96777.53;;;0.61;100.00
44131;BME280;29792;48.726;9.248;2023-03-15T03:41:52;96783.50;;;0.58;100.00
44131;BME280;29792;48.726;9.248;2023-03-15T03:44:18;96787.00;;;0.56;100.00
44131;BME280;29792;48.726;9.248;2023-03-15T03:46:43;96794.69;;;0.53;100.00
44131;BME280;29792;48.726;9.248;2023-03-15T03:49:08;96799.78;;;0.51;100.00
44131;BME280;29792;48.726;9.248;2023-03-15T03:51:33;96798.25;;;0.49;100.00
44131;BME280;29792;48.726;9.248;2023-03-15T03:54:00;96808.31;;;0.49;100.00
44131;BME280;29792;48.726;9.248;2023-03-15T03:56:25;96808.38;;;0.47;100.00
44131;BME280;29792;48.726;9.248;2023-03-15T03:58:50;96810.03;;;0.48;100.00
44131;BME280;29792;48.726;9.248;2023-03-15T04:01:16;96814.91;;;0.51;100.00
44131;BME280;29792;48.726;9.248;2023-03-15T04:03:41;96814.16;;;0.49;100.00
44131;BME280;29792;48.726;9.248;2023-03-15T04:06:06;96817.59;;;0.48;100.00
44131;BME280;29792;48.726;9.248;2023-03-15T04:08:31;96820.91;;;0.49;100.00
44131;BME280;29792;48.726;9.248;2023-03-15T04:10:57;96826.75;;;0.49;100.00
44131;BME280;29792;48.726;9.248;2023-03-15T04:13:23;96826.03;;;0.47;100.00
44131;BME280;29792;48.726;9.248;2023-03-15T04:15:49;96830.25;;;0.47;100.00
44131;BME280;29792;48.726;9.248;2023-03-15T04:18:15;96840.31;;;0.47;100.00
44131;BME280;29792;48.726;9.248;2023-03-15T04:20:40;96844.53;;;0.46;100.00
44131;BME280;29792;48.726;9.248;2023-03-15T04:23:16;96848.94;;;0.41;100.00
44131;BME280;29792;48.726;9.248;2023-03-15T04:25:47;96846.63;;;0.36;100.00
44131;BME280;29792;48.726;9.248;2023-03-15T04:28:12;96853.63;;;0.30;100.00
44131;BME280;29792;48.726;9.248;2023-03-15T04:30:37;96857.06;;;0.27;100.00
44131;BME280;29792;48.726;9.248;2023-03-15T04:33:03;96854.63;;;0.26;100.00
44131;BME280;29792;48.726;9.248;2023-03-15T04:35:31;96856.41;;;0.24;100.00
44131;BME280;29792;48.726;9.248;2023-03-15T04:37:57;96860.53;;;0.25;100.00
44131;BME280;29792;48.726;9.248;2023-03-15T04:40:23;96858.00;;;0.25;100.00
44131;BME280;29792;48.726;9.248;2023-03-15T04:42:53;96867.31;;;0.24;100.00
44131;BME280;29792;48.726;9.248;2023-03-15T04:45:20;96864.78;;;0.24;100.00
44131;BME280;29792;48.726;9.248;2023-03-15T04:47:45;96865.50;;;0.26;100.00
44131;BME280;29792;48.726;9.248;2023-03-15T04:50:10;96873.13;;;0.25;100.00
44131;BME280;29792;48.726;9.248;2023-03-15T04:52:37;96871.50;;;0.24;100.00
44131;BME280;29792;48.726;9.248;2023-03-15T04:55:02;96870.69;;;0.23;100.00
44131;BME280;29792;48.726;9.248;2023-03-15T04:57:27;96873.22;;;0.23;100.00
44131;BME280;29792;48.726;9.248;2023-03-15T04:59:53;96879.94;;;0.23;100.00
44131;BME280;29792;48.726;9.248;2023-03-15T05:02:18;96870.69;;;0.23;100.00
44131;BME280;29792;48.726;9.248;2023-03-15T05:04:43;96872.41;;;0.23;100.00
44131;BME280;29792;48.726;9.248;2023-03-15T05:07:09;96868.22;;;0.22;100.00
44131;BME280;29792;48.726;9.248;2023-03-15T05:09:34;96873.34;;;0.20;100.00
44131;BME280;29792;48.726;9.248;2023-03-15T05:12:03;96859.31;;;0.15;100.00
44131;BME280;29792;48.726;9.248;2023-03-15T05:14:29;96869.38;;;0.15;100.00
44131;BME280;29792;48.726;9.248;2023-03-15T05:16:55;96864.34;;;0.15;100.00
44131;BME280;29792;48.726;9.248;2023-03-15T05:19:22;96874.41;;;0.15;100.00
44131;BME280;29792;48.726;9.248;2023-03-15T05:21:48;96872.78;;;0.14;100.00
44131;BME280;29792;48.726;9.248;2023-03-15T05:24:13;96870.19;;;0.15;100.00
44131;BME280;29792;48.726;9.248;2023-03-15T05:26:38;96871.84;;;0.16;100.00
44131;BME280;29792;48.726;9.248;2023-03-15T05:29:03;96871.84;;;0.16;100.00
44131;BME280;29792;48.726;9.248;2023-03-15T05:31:29;96873.44;;;0.17;100.00
44131;BME280;29792;48.726;9.248;2023-03-15T05:34:02;96866.81;;;0.16;100.00
44131;BME280;29792;48.726;9.248;2023-03-15T05:36:29;96874.34;;;0.16;100.00
44131;BME280;29792;48.726;9.248;2023-03-15T05:38:55;96877.75;;;0.15;100.00
44131;BME280;29792;48.726;9.248;2023-03-15T05:41:20;96878.56;;;0.16;100.00
44131;BME280;29792;48.726;9.248;2023-03-15T05:43:45;96880.25;;;0.15;100.00
44131;BME280;29792;48.726;9.248;2023-03-15T05:46:11;96874.41;;;0.15;100.00
44131;BME280;29792;48.726;9.248;2023-03-15T05:48:36;96876.09;;;0.14;100.00
44131;BME280;29792;48.726;9.248;2023-03-15T05:51:01;96882.03;;;0.13;100.00
44131;BME280;29792;48.726;9.248;2023-03-15T05:53:26;96891.28;;;0.13;100.00
44131;BME280;29792;48.726;9.248;2023-03-15T05:55:52;96888.00;;;0.11;100.00
44131;BME280;29792;48.726;9.248;2023-03-15T05:58:17;96899.69;;;0.12;100.00
44131;BME280;29792;48.726;9.248;2023-03-15T06:00:42;96895.50;;;0.12;100.00
44131;BME280;29792;48.726;9.248;2023-03-15T06:03:07;96897.94;;;0.14;100.00
44131;BME280;29792;48.726;9.248;2023-03-15T06:05:33;96905.44;;;0.15;100.00
44131;BME280;29792;48.726;9.248;2023-03-15T06:07:58;96897.81;;;0.17;100.00
44131;BME280;29792;48.726;9.248;2023-03-15T06:10:23;96894.28;;;0.21;100.00
44131;BME280;29792;48.726;9.248;2023-03-15T06:12:48;96891.66;;;0.24;100.00
44131;BME280;29792;48.726;9.248;2023-03-15T06:15:14;96893.22;;;0.26;100.00
44131;BME280;29792;48.726;9.248;2023-03-15T06:17:39;96899.00;;;0.28;100.00
44131;BME280;29792;48.726;9.248;2023-03-15T06:20:05;96901.41;;;0.31;100.00
44131;BME280;29792;48.726;9.248;2023-03-15T06:22:30;96901.22;;;0.36;100.00
44131;BME280;29792;48.726;9.248;2023-03-15T06:24:55;96906.75;;;0.44;100.00
44131;BME280;29792;48.726;9.248;2023-03-15T06:27:21;96911.22;;;0.58;100.00
44131;BME280;29792;48.726;9.248;2023-03-15T06:29:50;96914.31;;;0.64;100.00
44131;BME280;29792;48.726;9.248;2023-03-15T06:32:15;96919.19;;;0.67;100.00
44131;BME280;29792;48.726;9.248;2023-03-15T06:34:41;96916.56;;;0.70;100.00
44131;BME280;29792;48.726;9.248;2023-03-15T06:37:06;96923.91;;;0.75;100.00
44131;BME280;29792;48.726;9.248;2023-03-15T06:39:32;96929.66;;;0.79;100.00
44131;BME280;29792;48.726;9.248;2023-03-15T06:41:58;96928.78;;;0.80;100.00
44131;BME280;29792;48.726;9.248;2023-03-15T06:44:26;96933.63;;;0.84;100.00
44131;BME280;29792;48.726;9.248;2023-03-15T06:46:51;96932.63;;;0.88;100.00
44131;BME280;29792;48.726;9.248;2023-03-15T06:49:17;96934.84;;;0.94;100.00
44131;BME280;29792;48.726;9.248;2023-03-15T06:51:42;96937.09;;;1.00;100.00
44131;BME280;29792;48.726;9.248;2023-03-15T06:54:09;96933.59;;;1.04;100.00
44131;BME280;29792;48.726;9.248;2023-03-15T06:56:34;96935.06;;;1.08;100.00
44131;BME280;29792;48.726;9.248;2023-03-15T06:59:01;96939.13;;;1.12;100.00
44131;BME280;29792;48.726;9.248;2023-03-15T07:01:26;96945.66;;;1.17;100.00
44131;BME280;29792;48.726;9.248;2023-03-15T07:03:51;96941.28;;;1.20;100.00
44131;BME280;29792;48.726;9.248;2023-03-15T07:06:17;96941.00;;;1.26;100.00
44131;BME280;29792;48.726;9.248;2023-03-15T07:08:42;96938.09;;;1.35;100.00
44131;BME280;29792;48.726;9.248;2023-03-15T07:11:08;96941.91;;;1.44;100.00
44131;BME280;29792;48.726;9.248;2023-03-15T07:13:33;96937.41;;;1.50;100.00
44131;BME280;29792;48.726;9.248;2023-03-15T07:15:59;96940.38;;;1.59;100.00
44131;BME280;29792;48.726;9.248;2023-03-15T07:18:25;96945.03;;;1.68;100.00
44131;BME280;29792;48.726;9.248;2023-03-15T07:20:57;96947.38;;;1.71;100.00
44131;BME280;29792;48.726;9.248;2023-03-15T07:23:22;96945.19;;;1.82;100.00
44131;BME280;29792;48.726;9.248;2023-03-15T07:25:48;96944.63;;;1.94;100.00
44131;BME280;29792;48.726;9.248;2023-03-15T07:28:13;96954.09;;;2.08;100.00
44131;BME280;29792;48.726;9.248;2023-03-15T07:30:38;96942.78;;;2.15;100.00
44131;BME280;29792;48.726;9.248;2023-03-15T07:33:04;96948.28;;;2.23;100.00
44131;BME280;29792;48.726;9.248;2023-03-15T07:35:29;96954.63;;;2.32;100.00
44131;BME280;29792;48.726;9.248;2023-03-15T07:37:54;96964.22;;;2.42;100.00
44131;BME280;29792;48.726;9.248;2023-03-15T07:40:19;96960.34;;;2.52;100.00
44131;BME280;29792;48.726;9.248;2023-03-15T07:42:45;96968.06;;;2.66;100.00
44131;BME280;29792;48.726;9.248;2023-03-15T07:45:10;96964.19;;;2.77;100.00
44131;BME280;29792;48.726;9.248;2023-03-15T07:47:36;96967.00;;;2.88;100.00
44131;BME280;29792;48.726;9.248;2023-03-15T07:50:02;96971.59;;;2.97;100.00
44131;BME280;29792;48.726;9.248;2023-03-15T07:52:28;96968.69;;;3.04;99.18
44131;BME280;29792;48.726;9.248;2023-03-15T07:54:53;96973.09;;;3.17;98.61
44131;BME280;29792;48.726;9.248;2023-03-15T07:57:18;96972.63;;;3.26;98.21
44131;BME280;29792;48.726;9.248;2023-03-15T07:59:44;96971.25;;;3.36;97.47
44131;BME280;29792;48.726;9.248;2023-03-15T08:02:13;96977.41;;;3.48;98.04
44131;BME280;29792;48.726;9.248;2023-03-15T08:04:39;96974.16;;;3.61;98.47
44131;BME280;29792;48.726;9.248;2023-03-15T08:07:04;96973.19;;;3.79;98.08
44131;BME280;29792;48.726;9.248;2023-03-15T08:09:30;96972.44;;;3.93;97.75
44131;BME280;29792;48.726;9.248;2023-03-15T08:11:57;96976.84;;;4.05;96.58
44131;BME280;29792;48.726;9.248;2023-03-15T08:14:22;96985.47;;;4.17;95.31
44131;BME280;29792;48.726;9.248;2023-03-15T08:16:49;96980.38;;;4.33;94.62
44131;BME280;29792;48.726;9.248;2023-03-15T08:19:14;96981.25;;;4.32;92.44
44131;BME280;29792;48.726;9.248;2023-03-15T08:21:40;96980.28;;;4.34;92.34
44131;BME280;29792;48.726;9.248;2023-03-15T08:24:09;96980.59;;;4.44;92.36
44131;BME280;29792;48.726;9.248;2023-03-15T08:26:35;96984.78;;;4.45;92.13
44131;BME280;29792;48.726;9.248;2023-03-15T08:29:00;96983.16;;;4.58;92.81
44131;BME280;29792;48.726;9.248;2023-03-15T08:31:25;96984.09;;;4.71;91.93
44131;BME280;29792;48.726;9.248;2023-03-15T08:33:50;96981.13;;;4.79;91.48
44131;BME280;29792;48.726;9.248;2023-03-15T08:36:16;96973.72;;;4.90;91.60
44131;BME280;29792;48.726;9.248;2023-03-15T08:38:41;96971.19;;;5.04;91.88
44131;BME280;29792;48.726;9.248;2023-03-15T08:41:06;96976.72;;;5.25;91.94
44131;BME280;29792;48.726;9.248;2023-03-15T08:43:31;96976.41;;;5.44;90.06
44131;BME280;29792;48.726;9.248;2023-03-15T08:45:57;96982.06;;;5.49;87.23
44131;BME280;29792;48.726;9.248;2023-03-15T08:48:22;96980.88;;;5.54;85.94
44131;BME280;29792;48.726;9.248;2023-03-15T08:50:48;96970.69;;;5.54;83.93
44131;BME280;29792;48.726;9.248;2023-03-15T08:53:13;96981.09;;;5.78;84.05
44131;BME280;29792;48.726;9.248;2023-03-15T08:55:38;96992.09;;;6.20;85.25
44131;BME280;29792;48.726;9.248;2023-03-15T08:58:03;96985.88;;;6.50;80.01
44131;BME280;29792;48.726;9.248;2023-03-15T09:00:30;96983.28;;;6.90;78.61
44131;BME280;29792;48.726;9.248;2023-03-15T09:02:55;96995.94;;;7.30;75.01
44131;BME280;29792;48.726;9.248;2023-03-15T09:05:22;96987.03;;;7.35;70.62
44131;BME280;29792;48.726;9.248;2023-03-15T09:07:48;97003.34;;;7.33;69.41
44131;BME280;29792;48.726;9.248;2023-03-15T09:10:15;96998.19;;;7.21;67.67
44131;BME280;29792;48.726;9.248;2023-03-15T09:12:45;96999.97;;;7.07;68.05
44131;BME280;29792;48.726;9.248;2023-03-15T09:15:11;96998.66;;;7.01;68.20
44131;BME280;29792;48.726;9.248;2023-03-15T09:17:38;97008.22;;;6.98;67.68
44131;BME280;29792;48.726;9.248;2023-03-15T09:20:08;97010.00;;;6.97;68.59
44131;BME280;29792;48.726;9.248;2023-03-15T09:22:48;97016.69;;;6.85;66.45
44131;BME280;29792;48.726;9.248;2023-03-15T09:25:14;97013.63;;;6.80;67.03
44131;BME280;29792;48.726;9.248;2023-03-15T09:27:39;97006.50;;;6.85;68.05
44131;BME280;29792;48.726;9.248;2023-03-15T09:30:05;97020.03;;;6.86;67.98
44131;BME280;29792;48.726;9.248;2023-03-15T09:32:30;97023.38;;;6.74;67.58
44131;BME280;29792;48.726;9.248;2023-03-15T09:35:00;97017.75;;;6.56;66.03
44131;BME280;29792;48.726;9.248;2023-03-15T09:37:25;97030.00;;;6.37;65.73
44131;BME280;29792;48.726;9.248;2023-03-15T09:39:52;97020.25;;;6.17;66.42
44131;BME280;29792;48.726;9.248;2023-03-15T09:42:23;97032.28;;;6.00;66.81
44131;BME280;29792;48.726;9.248;2023-03-15T09:45:06;97032.03;;;5.91;68.73
44131;BME280;29792;48.726;9.248;2023-03-15T09:50:20;97028.22;;;5.84;68.94
44131;BME280;29792;48.726;9.248;2023-03-15T09:53:57;97030.41;;;5.75;69.50
44131;BME280;29792;48.726;9.248;2023-03-15T09:55:50;97033.38;;;5.68;70.32
44131;BME280;29792;48.726;9.248;2023-03-15T09:58:20;97032.75;;;5.64;71.61
44131;BME280;29792;48.726;9.248;2023-03-15T10:01:01;97033.03;;;5.60;70.92
44131;BME280;29792;48.726;9.248;2023-03-15T10:03:47;97035.13;;;5.53;70.78
44131;BME280;29792;48.726;9.248;2023-03-15T10:06:28;97025.78;;;5.54;72.59
44131;BME280;29792;48.726;9.248;2023-03-15T10:08:57;97026.41;;;5.57;72.12
44131;BME280;29792;48.726;9.248;2023-03-15T10:11:33;97028.06;;;5.58;72.08
44131;BME280;29792;48.726;9.248;2023-03-15T10:14:11;97026.94;;;5.62;72.40
44131;BME280;29792;48.726;9.248;2023-03-15T10:16:48;97022.97;;;5.58;71.67
44131;BME280;29792;48.726;9.248;2023-03-15T10:19:49;97026.41;;;5.57;71.22
44131;BME280;29792;48.726;9.248;2023-03-15T10:22:23;97026.88;;;5.64;71.54
44131;BME280;29792;48.726;9.248;2023-03-15T10:25:00;97036.84;;;5.67;71.03
44131;BME280;29792;48.726;9.248;2023-03-15T10:27:40;97021.22;;;5.73;70.82
44131;BME280;29792;48.726;9.248;2023-03-15T10:30:22;97029.22;;;5.81;71.17
44131;BME280;29792;48.726;9.248;2023-03-15T10:32:53;97024.94;;;5.96;71.34
44131;BME280;29792;48.726;9.248;2023-03-15T10:35:20;97027.44;;;6.10;72.24
44131;BME280;29792;48.726;9.248;2023-03-15T10:37:45;97014.22;;;6.32;72.14
44131;BME280;29792;48.726;9.248;2023-03-15T10:40:12;97013.75;;;6.52;71.38
44131;BME280;29792;48.726;9.248;2023-03-15T10:42:42;97019.31;;;6.84;69.68
44131;BME280;29792;48.726;9.248;2023-03-15T10:45:24;97008.97;;;7.12;67.17
44131;BME280;29792;48.726;9.248;2023-03-15T10:47:50;97014.97;;;7.24;65.77
44131;BME280;29792;48.726;9.248;2023-03-15T10:50:27;97014.97;;;7.24;64.57
44131;BME280;29792;48.726;9.248;2023-03-15T10:52:57;97016.09;;;7.20;64.49
44131;BME280;29792;48.726;9.248;2023-03-15T10:55:34;97016.91;;;7.20;63.61
44131;BME280;29792;48.726;9.248;2023-03-15T10:58:21;97010.19;;;7.19;62.80
44131;BME280;29792;48.726;9.248;2023-03-15T11:00:50;97017.22;;;7.28;62.41
44131;BME280;29792;48.726;9.248;2023-03-15T11:03:21;97013.69;;;8.99;67.00
44131;BME280;29792;48.726;9.248;2023-03-15T11:05:50;97004.09;;;10.35;59.57
44131;BME280;29792;48.726;9.248;2023-03-15T11:08:36;97001.22;;;11.02;54.86
44131;BME280;29792;48.726;9.248;2023-03-15T11:11:04;97000.88;;;11.67;53.23
44131;BME280;29792;48.726;9.248;2023-03-15T11:13:32;96992.00;;;11.20;51.40
44131;BME280;29792;48.726;9.248;2023-03-15T11:18:46;96998.97;;;9.47;52.06
44131;BME280;29792;48.726;9.248;2023-03-15T11:21:14;97002.03;;;8.95;52.43
44131;BME280;29792;48.726;9.248;2023-03-15T11:23:48;97010.06;;;8.56;54.54
44131;BME280;29792;48.726;9.248;2023-03-15T11:26:25;97006.19;;;8.26;55.73
44131;BME280;29792;48.726;9.248;2023-03-15T11:28:54;97002.81;;;8.02;56.63
44131;BME280;29792;48.726;9.248;2023-03-15T11:31:25;96997.88;;;7.75;57.01
44131;BME280;29792;48.726;9.248;2023-03-15T11:33:57;97002.69;;;7.54;57.90
44131;BME280;29792;48.726;9.248;2023-03-15T11:36:27;96991.13;;;7.38;59.14
44131;BME280;29792;48.726;9.248;2023-03-15T11:38:54;96990.84;;;7.30;59.47
44131;BME280;29792;48.726;9.248;2023-03-15T11:41:40;96995.50;;;7.23;59.67
44131;BME280;29792;48.726;9.248;2023-03-15T11:49:53;96990.84;;;7.04;60.26
44131;BME280;29792;48.726;9.248;2023-03-15T11:52:22;96992.66;;;7.02;59.88
44131;BME280;29792;48.726;9.248;2023-03-15T11:54:48;96990.81;;;6.92;60.08
44131;BME280;29792;48.726;9.248;2023-03-15T11:59:52;96987.94;;;6.83;60.29
44131;BME280;29792;48.726;9.248;2023-03-15T12:04:45;96998.22;;;6.82;61.05
44131;BME280;29792;48.726;9.248;2023-03-15T12:09:46;96994.50;;;6.87;60.74
44131;BME280;29792;48.726;9.248;2023-03-15T12:20:01;97004.97;;;6.83;59.06
44131;BME280;29792;48.726;9.248;2023-03-15T12:22:34;97006.81;;;6.94;59.35
44131;BME280;29792;48.726;9.248;2023-03-15T12:25:16;96998.03;;;6.98;58.99
44131;BME280;29792;48.726;9.248;2023-03-15T12:27:49;96992.66;;;7.02;58.99
44131;BME280;29792;48.726;9.248;2023-03-15T12:30:24;96991.84;;;7.14;59.53
44131;BME280;29792;48.726;9.248;2023-03-15T12:32:55;96989.28;;;7.40;57.79
44131;BME280;29792;48.726;9.248;2023-03-15T12:35:23;96989.31;;;7.76;58.15
44131;BME280;29792;48.726;9.248;2023-03-15T12:37:51;96984.16;;;8.01;57.77
44131;BME280;29792;48.726;9.248;2023-03-15T12:55:57;96985.88;;;8.25;54.33
44131;BME280;29792;48.726;9.248;2023-03-15T12:58:39;97001.50;;;8.20;54.40
44131;BME280;29792;48.726;9.248;2023-03-15T13:01:06;97000.53;;;8.10;54.03
44131;BME280;29792;48.726;9.248;2023-03-15T13:03:33;97002.03;;;7.89;53.41
44131;BME280;29792;48.726;9.248;2023-03-15T13:06:24;97009.19;;;7.71;53.49
44131;BME280;29792;48.726;9.248;2023-03-15T13:12:08;97005.91;;;7.45;55.43
44131;BME280;29792;48.726;9.248;2023-03-15T13:19:48;97013.03;;;7.40;56.86
44131;BME280;29792;48.726;9.248;2023-03-15T13:22:41;97010.28;;;7.43;57.76
44131;BME280;29792;48.726;9.248;2023-03-15T13:25:18;97005.69;;;7.48;58.28
44131;BME280;29792;48.726;9.248;2023-03-15T13:27:55;97007.22;;;7.51;60.92
44131;BME280;29792;48.726;9.248;2023-03-15T13:30:36;97007.13;;;7.52;61.43
44131;BME280;29792;48.726;9.248;2023-03-15T13:33:05;97006.88;;;7.55;62.75
44131;BME280;29792;48.726;9.248;2023-03-15T13:35:41;97007.59;;;7.57;64.23
44131;BME280;29792;48.726;9.248;2023-03-15T13:40:56;97007.94;;;7.53;65.05
44131;BME280;29792;48.726;9.248;2023-03-15T13:43:28;97011.88;;;7.57;65.32
44131;BME280;29792;48.726;9.248;2023-03-15T13:45:56;97006.97;;;7.66;66.84
44131;BME280;29792;48.726;9.248;2023-03-15T13:48:21;97009.00;;;7.74;66.50
44131;BME280;29792;48.726;9.248;2023-03-15T13:50:50;97005.63;;;7.74;66.40
44131;BME280;29792;48.726;9.248;2023-03-15T13:53:24;97007.59;;;7.70;66.30
44131;BME280;29792;48.726;9.248;2023-03-15T13:55:51;97017.50;;;7.62;66.96
44131;BME280;29792;48.726;9.248;2023-03-15T13:58:17;97010.34;;;7.54;66.98
44131;BME280;29792;48.726;9.248;2023-03-15T14:00:43;97021.88;;;7.47;67.42
44131;BME280;29792;48.726;9.248;2023-03-15T14:03:19;97017.81;;;7.32;67.57
44131;BME280;29792;48.726;9.248;2023-03-15T14:05:50;97014.75;;;7.14;68.00
44131;BME280;29792;48.726;9.248;2023-03-15T14:08:23;97025.56;;;7.05;68.89